Time;durP1;ratioP1;P1;durP2;ratioP2;P2;SDS_P1;SDS_P2;PMS_P1;PMS_P2;Temp;Humidity;BMP_temperature;BMP_pressure;BME280_temperature;BME280_humidity;BME280_pressure;Samples;Min_cycle;Max_cycle;Signal;HPM_P1;HPM_P2
2023/08/11 00:00:21;;;;;;;2.03;1.85;;;;;;;;;;4998201;28;20187;-49
2023/08/11 00:02:49;;;;;;;3.63;1.92;;;;;;;;;;4987715;28;20189;-49
2023/08/11 00:05:17;;;;;;;2.30;2.10;;;;;;;;;;4991270;28;20535;-49
2023/08/11 00:07:43;;;;;;;3.30;1.92;;;;;;;;;;4991829;28;20189;-49
2023/08/11 00:10:09;;;;;;;2.85;2.30;;;;;;;;;;4997760;28;20177;-49
2023/08/11 00:12:35;;;;;;;2.33;2.08;;;;;;;;;;4995370;28;20193;-49
2023/08/11 00:15:01;;;;;;;2.80;1.85;;;;;;;;;;5001199;28;20196;-49
2023/08/11 00:17:27;;;;;;;2.70;1.80;;;;;;;;;;4991581;28;20551;-49
2023/08/11 00:19:53;;;;;;;2.05;1.85;;;;;;;;;;5000170;28;20180;-49
2023/08/11 00:22:19;;;;;;;3.03;1.92;;;;;;;;;;4999385;28;20185;-49
2023/08/11 00:24:45;;;;;;;1.95;1.80;;;;;;;;;;4992838;28;20192;-48
2023/08/11 00:27:11;;;;;;;2.30;2.10;;;;;;;;;;4998982;28;20216;-50
2023/08/11 00:29:37;;;;;;;3.17;1.90;;;;;;;;;;4998956;28;20223;-48
2023/08/11 00:32:03;;;;;;;2.83;1.98;;;;;;;;;;5005503;28;20185;-49
2023/08/11 00:34:29;;;;;;;2.92;2.13;;;;;;;;;;5003513;28;20231;-47
2023/08/11 00:36:55;;;;;;;3.08;2.03;;;;;;;;;;4991082;28;20187;-48
2023/08/11 00:39:21;;;;;;;2.30;2.10;;;;;;;;;;5005238;28;20520;-48
2023/08/11 00:41:47;;;;;;;2.50;1.92;;;;;;;;;;4993780;28;20182;-48
2023/08/11 00:44:13;;;;;;;2.25;2.03;;;;;;;;;;4989747;28;20205;-49
2023/08/11 00:46:42;;;;;;;3.58;2.15;;;;;;;;;;4990641;28;20189;-50
2023/08/11 00:49:09;;;;;;;2.20;2.00;;;;;;;;;;5001541;28;20181;-49
2023/08/11 00:51:35;;;;;;;2.85;2.22;;;;;;;;;;4993026;28;20259;-49
2023/08/11 00:54:01;;;;;;;2.97;2.45;;;;;;;;;;4988107;28;20556;-49
2023/08/11 00:56:27;;;;;;;2.70;2.08;;;;;;;;;;4995177;28;20193;-49
2023/08/11 00:58:54;;;;;;;4.30;2.13;;;;;;;;;;4992287;28;20212;-49
2023/08/11 01:01:19;;;;;;;2.22;1.95;;;;;;;;;;4995469;28;20186;-49
2023/08/11 01:03:47;;;;;;;5.40;2.25;;;;;;;;;;4985354;28;20192;-49
2023/08/11 01:06:32;;;;;;;2.05;1.80;;;;;;;;;;4996703;28;20572;-49
2023/08/11 01:09:06;;;;;;;3.28;2.30;;;;;;;;;;4993729;28;20213;-50
2023/08/11 01:11:45;;;;;;;2.10;1.75;;;;;;;;;;5005071;28;20188;-49
2023/08/11 01:14:31;;;;;;;2.30;1.85;;;;;;;;;;4990805;28;20193;-48
2023/08/11 01:16:59;;;;;;;4.97;2.05;;;;;;;;;;5009486;28;20180;-49
2023/08/11 01:19:30;;;;;;;2.78;1.90;;;;;;;;;;5015371;28;20287;-48
2023/08/11 01:21:59;;;;;;;2.80;2.55;;;;;;;;;;4993995;28;20185;-48
2023/08/11 01:24:25;;;;;;;2.60;2.10;;;;;;;;;;4988792;28;20181;-49
2023/08/11 01:26:52;;;;;;;3.88;2.20;;;;;;;;;;4996172;28;20179;-48
2023/08/11 01:29:18;;;;;;;2.33;2.00;;;;;;;;;;4996292;28;20212;-48
2023/08/11 01:31:44;;;;;;;2.17;1.98;;;;;;;;;;4998477;28;20199;-49
2023/08/11 01:34:10;;;;;;;4.05;2.30;;;;;;;;;;4994978;28;20327;-49
2023/08/11 01:36:37;;;;;;;3.80;2.30;;;;;;;;;;4996233;28;20560;-49
2023/08/11 01:39:07;;;;;;;3.42;2.08;;;;;;;;;;5002006;28;20441;-49
2023/08/11 01:41:33;;;;;;;2.67;2.00;;;;;;;;;;4985094;28;20196;-49
2023/08/11 01:44:00;;;;;;;2.03;1.85;;;;;;;;;;4988652;28;20446;-49
2023/08/11 01:46:27;;;;;;;3.85;2.50;;;;;;;;;;4990048;28;20186;-49
2023/08/11 01:48:55;;;;;;;2.70;2.15;;;;;;;;;;4989839;28;20213;-50
2023/08/11 01:51:21;;;;;;;2.40;2.20;;;;;;;;;;4992999;28;20283;-48
2023/08/11 01:53:48;;;;;;;3.05;2.20;;;;;;;;;;4986946;28;20197;-49
2023/08/11 01:56:14;;;;;;;2.67;2.03;;;;;;;;;;4991894;28;20189;-50
2023/08/11 01:58:40;;;;;;;3.35;2.33;;;;;;;;;;5003422;28;20213;-49
2023/08/11 02:01:07;;;;;;;2.63;1.98;;;;;;;;;;5003984;28;20288;-48
2023/08/11 02:03:33;;;;;;;2.72;2.38;;;;;;;;;;4988815;28;20934;-49
2023/08/11 02:05:59;;;;;;;2.30;2.10;;;;;;;;;;4994210;28;20567;-49
2023/08/11 02:08:25;;;;;;;2.47;2.00;;;;;;;;;;4994941;28;20195;-48
2023/08/11 02:10:52;;;;;;;3.22;1.98;;;;;;;;;;5005617;28;20188;-49
2023/08/11 02:13:18;;;;;;;2.45;2.13;;;;;;;;;;4994576;28;20477;-49
2023/08/11 02:15:44;;;;;;;2.42;1.90;;;;;;;;;;5005219;28;20211;-49
2023/08/11 02:18:10;;;;;;;2.08;1.80;;;;;;;;;;5000409;28;20208;-49
2023/08/11 02:20:36;;;;;;;1.85;1.75;;;;;;;;;;4993583;28;20227;-48
2023/08/11 02:23:02;;;;;;;3.58;1.90;;;;;;;;;;4987806;28;20232;-48
2023/08/11 02:25:28;;;;;;;2.30;2.10;;;;;;;;;;4993777;28;20259;-49
2023/08/11 02:27:54;;;;;;;3.08;2.15;;;;;;;;;;4987113;28;20302;-48
2023/08/11 02:30:22;;;;;;;2.85;2.10;;;;;;;;;;4995257;28;20284;-49
2023/08/11 02:32:47;;;;;;;2.30;2.10;;;;;;;;;;4994479;28;20177;-48
2023/08/11 02:35:14;;;;;;;2.17;1.90;;;;;;;;;;4987686;28;20185;-49
2023/08/11 02:37:41;;;;;;;2.17;1.98;;;;;;;;;;4996311;28;20683;-49
2023/08/11 02:40:09;;;;;;;3.47;1.80;;;;;;;;;;5000248;28;20263;-48
2023/08/11 02:42:35;;;;;;;2.00;1.90;;;;;;;;;;5003336;28;20615;-49
2023/08/11 02:45:03;;;;;;;2.13;1.92;;;;;;;;;;4988022;28;20764;-48
2023/08/11 02:47:29;;;;;;;2.53;1.90;;;;;;;;;;4985147;28;20271;-48
2023/08/11 02:49:55;;;;;;;2.17;1.92;;;;;;;;;;4994845;28;20260;-50
2023/08/11 02:52:21;;;;;;;3.15;2.35;;;;;;;;;;4999201;28;20351;-48
2023/08/11 02:54:47;;;;;;;4.20;1.90;;;;;;;;;;4983739;28;20192;-49
2023/08/11 02:57:13;;;;;;;3.53;2.50;;;;;;;;;;4999543;28;20180;-49
2023/08/11 02:59:39;;;;;;;2.33;2.05;;;;;;;;;;4993234;28;20213;-49
2023/08/11 03:02:07;;;;;;;4.78;1.90;;;;;;;;;;4986407;28;20181;-48
2023/08/11 03:04:36;;;;;;;2.65;1.70;;;;;;;;;;4988419;28;20209;-49
2023/08/11 03:07:05;;;;;;;2.28;2.08;;;;;;;;;;4993882;28;20568;-48
2023/08/11 03:09:31;;;;;;;3.90;2.05;;;;;;;;;;4992549;28;20188;-48
2023/08/11 03:11:57;;;;;;;3.47;2.00;;;;;;;;;;5009707;28;20173;-49
2023/08/11 03:14:23;;;;;;;2.28;2.05;;;;;;;;;;4995591;28;20190;-49
2023/08/11 03:16:49;;;;;;;3.42;1.98;;;;;;;;;;5006630;28;20192;-50
2023/08/11 03:19:15;;;;;;;2.58;2.15;;;;;;;;;;5006267;28;20204;-49
2023/08/11 03:21:41;;;;;;;4.90;1.90;;;;;;;;;;4995830;28;20425;-49
2023/08/11 03:24:07;;;;;;;2.92;1.90;;;;;;;;;;4986231;28;20182;-48
2023/08/11 03:26:33;;;;;;;2.70;2.13;;;;;;;;;;4993330;28;20243;-49
2023/08/11 03:28:59;;;;;;;2.65;2.00;;;;;;;;;;4999195;28;20188;-49
2023/08/11 03:31:25;;;;;;;2.42;1.77;;;;;;;;;;4998634;28;20254;-48
2023/08/11 03:33:51;;;;;;;2.13;1.73;;;;;;;;;;5002557;28;20199;-49
2023/08/11 03:36:17;;;;;;;2.17;1.98;;;;;;;;;;4991361;28;20582;-49
2023/08/11 03:38:43;;;;;;;2.17;1.95;;;;;;;;;;4995841;28;20299;-49
2023/08/11 03:41:09;;;;;;;1.42;1.33;;;;;;;;;;4994808;28;20220;-48
2023/08/11 03:43:35;;;;;;;2.67;2.03;;;;;;;;;;4996757;28;20185;-48
2023/08/11 03:46:01;;;;;;;5.32;2.15;;;;;;;;;;4982511;28;20188;-48
2023/08/11 03:48:27;;;;;;;91.60;15.85;;;;;;;;;;4985782;28;20201;-49
2023/08/11 03:50:53;;;;;;;80.78;15.23;;;;;;;;;;4986642;28;20241;-49
2023/08/11 03:53:19;;;;;;;69.80;13.63;;;;;;;;;;4992087;28;20205;-49
2023/08/11 03:55:47;;;;;;;62.22;11.43;;;;;;;;;;4995989;28;20186;-49
2023/08/11 03:58:14;;;;;;;37.10;9.38;;;;;;;;;;4999152;28;20208;-49
2023/08/11 04:00:40;;;;;;;41.97;8.23;;;;;;;;;;5006992;28;20316;-49
2023/08/11 04:03:09;;;;;;;36.40;7.95;;;;;;;;;;4997222;28;20488;-50
2023/08/11 04:05:35;;;;;;;35.88;8.23;;;;;;;;;;5013920;28;20264;-49
2023/08/11 04:08:01;;;;;;;25.48;5.97;;;;;;;;;;4997439;28;20204;-49
2023/08/11 04:10:27;;;;;;;29.88;6.78;;;;;;;;;;4997896;28;20216;-49
2023/08/11 04:12:53;;;;;;;24.13;5.70;;;;;;;;;;4997496;28;20291;-48
2023/08/11 04:15:19;;;;;;;25.45;5.53;;;;;;;;;;5002655;28;20227;-48
2023/08/11 04:17:45;;;;;;;28.50;5.90;;;;;;;;;;4992567;28;20216;-48
2023/08/11 04:20:15;;;;;;;26.02;6.40;;;;;;;;;;4988716;28;20263;-48
2023/08/11 04:22:40;;;;;;;24.35;5.90;;;;;;;;;;4997285;28;20579;-48
2023/08/11 04:25:07;;;;;;;18.73;5.05;;;;;;;;;;4993139;28;20188;-45
2023/08/11 04:27:34;;;;;;;28.27;5.55;;;;;;;;;;4996706;28;20189;-43
2023/08/11 04:30:00;;;;;;;19.70;4.78;;;;;;;;;;4990892;28;20181;-45
2023/08/11 04:32:26;;;;;;;21.10;5.57;;;;;;;;;;4993820;28;20264;-47
2023/08/11 04:34:52;;;;;;;17.23;4.20;;;;;;;;;;4997686;28;20542;-47
2023/08/11 04:37:18;;;;;;;20.67;4.53;;;;;;;;;;4999429;28;20188;-48
2023/08/11 04:39:44;;;;;;;18.00;3.95;;;;;;;;;;4998800;28;20556;-50
2023/08/11 04:42:10;;;;;;;13.13;3.92;;;;;;;;;;5000278;28;20192;-49
2023/08/11 04:44:36;;;;;;;20.00;4.35;;;;;;;;;;4989427;28;20189;-65
2023/08/11 04:47:02;;;;;;;9.43;3.42;;;;;;;;;;4988158;28;20177;-55
2023/08/11 04:49:28;;;;;;;14.40;3.85;;;;;;;;;;4995664;28;20268;-55
2023/08/11 04:51:54;;;;;;;8.43;2.90;;;;;;;;;;5002899;28;20483;-71
2023/08/11 04:54:20;;;;;;;10.75;3.58;;;;;;;;;;4991439;28;20198;-44
2023/08/11 04:56:46;;;;;;;10.05;3.20;;;;;;;;;;4997357;28;20217;-44
2023/08/11 04:59:12;;;;;;;14.38;3.28;;;;;;;;;;5000635;28;20209;-48
2023/08/11 05:01:38;;;;;;;9.48;3.00;;;;;;;;;;4991084;28;20191;-47
2023/08/11 05:04:04;;;;;;;10.20;2.75;;;;;;;;;;5005246;28;20169;-52
2023/08/11 05:06:31;;;;;;;9.00;2.80;;;;;;;;;;4994845;28;20185;-52
2023/08/11 05:08:57;;;;;;;10.38;3.55;;;;;;;;;;4995319;28;20235;-52
2023/08/11 05:11:23;;;;;;;6.70;2.78;;;;;;;;;;4995817;28;20185;-52
2023/08/11 05:13:49;;;;;;;7.55;2.95;;;;;;;;;;5011624;28;20590;-52
2023/08/11 05:16:15;;;;;;;7.45;2.58;;;;;;;;;;4994988;28;20185;-52
2023/08/11 05:18:41;;;;;;;8.88;3.05;;;;;;;;;;4992881;28;20201;-52
2023/08/11 05:21:06;;;;;;;7.55;2.50;;;;;;;;;;5004581;28;20208;-52
2023/08/11 05:23:33;;;;;;;7.82;2.58;;;;;;;;;;4994993;28;20216;-52
2023/08/11 05:25:58;;;;;;;7.72;2.75;;;;;;;;;;4994827;28;20208;-52
2023/08/11 05:28:24;;;;;;;10.77;2.58;;;;;;;;;;4986991;28;20190;-52
2023/08/11 05:30:51;;;;;;;8.68;2.38;;;;;;;;;;4985836;28;20177;-52
2023/08/11 05:33:17;;;;;;;8.23;2.33;;;;;;;;;;4994816;28;20189;-52
2023/08/11 05:35:43;;;;;;;7.10;2.50;;;;;;;;;;4996398;28;20181;-52
2023/08/11 05:38:09;;;;;;;7.18;2.40;;;;;;;;;;4995855;28;20440;-52
2023/08/11 05:40:35;;;;;;;5.22;2.40;;;;;;;;;;4997870;28;20173;-51
2023/08/11 05:43:01;;;;;;;3.80;2.08;;;;;;;;;;4995451;28;20189;-49
2023/08/11 05:45:27;;;;;;;6.32;2.35;;;;;;;;;;4988413;28;20196;-49
2023/08/11 05:47:53;;;;;;;5.07;2.00;;;;;;;;;;5010008;28;20200;-49
2023/08/11 05:50:19;;;;;;;8.52;2.90;;;;;;;;;;5001931;28;20260;-49
2023/08/11 05:52:45;;;;;;;5.80;2.70;;;;;;;;;;4992634;28;20213;-49
2023/08/11 05:55:11;;;;;;;13.50;3.53;;;;;;;;;;4987607;28;20197;-49
2023/08/11 05:57:37;;;;;;;12.68;3.40;;;;;;;;;;4993692;28;20215;-48
2023/08/11 06:00:03;;;;;;;12.38;3.55;;;;;;;;;;5002647;28;20187;-49
2023/08/11 06:02:29;;;;;;;16.35;3.47;;;;;;;;;;5002070;28;20455;-49
2023/08/11 06:04:55;;;;;;;8.73;3.08;;;;;;;;;;4990392;28;20281;-49
2023/08/11 06:07:21;;;;;;;12.85;3.60;;;;;;;;;;4993765;28;20231;-49
2023/08/11 06:09:47;;;;;;;9.95;3.03;;;;;;;;;;4995914;28;20550;-49
2023/08/11 06:12:13;;;;;;;6.30;2.80;;;;;;;;;;4994889;28;20196;-49
2023/08/11 06:14:39;;;;;;;11.85;2.67;;;;;;;;;;4994985;28;20549;-49
2023/08/11 06:17:05;;;;;;;5.93;2.70;;;;;;;;;;4992718;28;20552;-49
2023/08/11 06:19:31;;;;;;;5.20;2.53;;;;;;;;;;4991148;28;20217;-49
2023/08/11 06:21:57;;;;;;;6.25;2.60;;;;;;;;;;5002339;28;20204;-49
2023/08/11 06:24:23;;;;;;;7.13;2.90;;;;;;;;;;4994245;28;20618;-49
2023/08/11 06:26:51;;;;;;;4.10;2.38;;;;;;;;;;4992151;28;20237;-49
2023/08/11 06:29:17;;;;;;;3.65;2.30;;;;;;;;;;4988802;28;20226;-49
2023/08/11 06:31:43;;;;;;;6.20;2.50;;;;;;;;;;4987555;28;20776;-49
2023/08/11 06:34:09;;;;;;;6.53;2.25;;;;;;;;;;5000487;28;20261;-49
2023/08/11 06:36:35;;;;;;;5.32;2.60;;;;;;;;;;4990538;28;20188;-49
2023/08/11 06:39:01;;;;;;;2.97;2.38;;;;;;;;;;4996990;28;20277;-49
2023/08/11 06:41:28;;;;;;;4.13;2.20;;;;;;;;;;5006195;28;20184;-49
2023/08/11 06:43:54;;;;;;;3.83;2.13;;;;;;;;;;4995904;28;20191;-49
2023/08/11 06:46:20;;;;;;;5.30;2.00;;;;;;;;;;4999237;28;20199;-49
2023/08/11 06:48:46;;;;;;;5.85;2.10;;;;;;;;;;4998373;28;20185;-49
2023/08/11 06:51:12;;;;;;;2.70;1.80;;;;;;;;;;4987020;28;20196;-49
2023/08/11 06:53:38;;;;;;;4.63;2.00;;;;;;;;;;4996421;28;20200;-49
2023/08/11 06:56:04;;;;;;;3.05;2.00;;;;;;;;;;4987189;28;20214;-49
2023/08/11 06:58:30;;;;;;;3.13;2.17;;;;;;;;;;4994793;28;20264;-49
2023/08/11 07:00:56;;;;;;;2.40;1.85;;;;;;;;;;4995007;28;20211;-49
2023/08/11 07:03:22;;;;;;;5.13;1.92;;;;;;;;;;4997209;28;20192;-49
2023/08/11 07:05:51;;;;;;;4.38;1.92;;;;;;;;;;5003018;28;20181;-49
2023/08/11 07:08:17;;;;;;;3.80;1.85;;;;;;;;;;4994739;28;20177;-49
2023/08/11 07:10:43;;;;;;;3.17;1.88;;;;;;;;;;4996544;28;20181;-49
2023/08/11 07:13:09;;;;;;;2.47;2.08;;;;;;;;;;4998972;28;20186;-49
2023/08/11 07:15:35;;;;;;;3.00;2.00;;;;;;;;;;5000742;28;20239;-49
2023/08/11 07:18:00;;;;;;;2.25;1.95;;;;;;;;;;4996363;28;20592;-49
2023/08/11 07:20:26;;;;;;;3.65;2.10;;;;;;;;;;4994104;28;20436;-49
2023/08/11 07:22:52;;;;;;;5.45;2.70;;;;;;;;;;4993863;28;20267;-49
2023/08/11 07:25:18;;;;;;;3.13;1.92;;;;;;;;;;5002614;28;20649;-49
2023/08/11 07:27:44;;;;;;;2.20;1.88;;;;;;;;;;4994366;28;20199;-49
2023/08/11 07:30:10;;;;;;;3.08;2.00;;;;;;;;;;4998235;28;20197;-49
2023/08/11 07:32:36;;;;;;;3.13;1.88;;;;;;;;;;4997921;28;20177;-49
2023/08/11 07:35:02;;;;;;;3.42;1.70;;;;;;;;;;4998173;28;20181;-49
2023/08/11 07:37:28;;;;;;;3.50;1.83;;;;;;;;;;5003263;28;20176;-49
2023/08/11 07:39:54;;;;;;;6.05;2.13;;;;;;;;;;5001063;28;20172;-49
2023/08/11 07:42:20;;;;;;;6.10;2.03;;;;;;;;;;4997308;28;20470;-49
2023/08/11 07:44:46;;;;;;;6.55;2.00;;;;;;;;;;4994728;28;20177;-49
2023/08/11 07:47:12;;;;;;;2.33;2.10;;;;;;;;;;5013883;28;20211;-49
2023/08/11 07:49:38;;;;;;;5.20;2.58;;;;;;;;;;5011201;28;20280;-49
2023/08/11 07:52:04;;;;;;;2.55;2.00;;;;;;;;;;4998082;28;20284;-49
2023/08/11 07:54:30;;;;;;;2.20;2.00;;;;;;;;;;4989584;28;20189;-49
2023/08/11 07:56:56;;;;;;;2.88;1.95;;;;;;;;;;4994625;28;20219;-49
2023/08/11 07:59:21;;;;;;;4.50;2.38;;;;;;;;;;4998767;28;20293;-49
2023/08/11 08:01:48;;;;;;;3.22;2.00;;;;;;;;;;4994778;28;20177;-49
2023/08/11 08:04:14;;;;;;;2.53;2.17;;;;;;;;;;5004750;28;20215;-49
2023/08/11 08:06:45;;;;;;;2.85;2.10;;;;;;;;;;4997843;28;20556;-49
2023/08/11 08:09:11;;;;;;;3.53;2.03;;;;;;;;;;4994746;28;20198;-49
2023/08/11 08:11:38;;;;;;;3.75;2.10;;;;;;;;;;4991448;28;20616;-49
2023/08/11 08:14:04;;;;;;;1.70;1.52;;;;;;;;;;4997510;28;20578;-49
2023/08/11 08:16:30;;;;;;;2.53;2.00;;;;;;;;;;4991702;28;20177;-49
2023/08/11 08:18:56;;;;;;;2.67;2.13;;;;;;;;;;5005506;28;20205;-49
2023/08/11 08:21:22;;;;;;;2.88;2.03;;;;;;;;;;4989523;28;20192;-49
2023/08/11 08:23:48;;;;;;;2.20;2.00;;;;;;;;;;4997221;28;20232;-49
2023/08/11 08:26:14;;;;;;;2.45;2.00;;;;;;;;;;4995506;28;20203;-49
2023/08/11 08:28:40;;;;;;;3.15;2.10;;;;;;;;;;4997633;28;20456;-49
2023/08/11 08:31:06;;;;;;;2.28;1.80;;;;;;;;;;4994417;28;20192;-49
2023/08/11 08:33:32;;;;;;;5.22;2.00;;;;;;;;;;4994284;28;20185;-49
2023/08/11 08:35:58;;;;;;;4.07;1.70;;;;;;;;;;5001829;28;20188;-49
2023/08/11 08:38:24;;;;;;;3.28;1.90;;;;;;;;;;5004018;28;20263;-49
2023/08/11 08:40:50;;;;;;;2.17;1.80;;;;;;;;;;4989286;28;20237;-49
2023/08/11 08:43:16;;;;;;;1.98;1.77;;;;;;;;;;4995468;28;20529;-49
2023/08/11 08:45:44;;;;;;;2.08;1.88;;;;;;;;;;4992938;28;20202;-49
2023/08/11 08:48:15;;;;;;;3.13;1.98;;;;;;;;;;4993322;28;20527;-49
2023/08/11 08:50:40;;;;;;;2.47;1.75;;;;;;;;;;4989502;28;20284;-49
2023/08/11 08:53:06;;;;;;;1.80;1.60;;;;;;;;;;4996444;28;20293;-49
2023/08/11 08:55:32;;;;;;;2.28;1.90;;;;;;;;;;5001372;28;20204;-49
2023/08/11 08:58:00;;;;;;;3.65;2.08;;;;;;;;;;5016436;28;20850;-49
2023/08/11 09:00:27;;;;;;;1.70;1.60;;;;;;;;;;4992785;28;20264;-49
2023/08/11 09:02:54;;;;;;;5.10;1.80;;;;;;;;;;4990482;28;20189;-49
2023/08/11 09:05:20;;;;;;;1.60;1.50;;;;;;;;;;4992891;28;20272;-49
2023/08/11 09:07:46;;;;;;;3.08;1.60;;;;;;;;;;4996528;28;20265;-49
2023/08/11 09:10:12;;;;;;;1.92;1.83;;;;;;;;;;4995252;28;20643;-49
2023/08/11 09:12:37;;;;;;;5.20;2.95;;;;;;;;;;4996071;28;20232;-49
2023/08/11 09:15:10;;;;;;;1.67;1.27;;;;;;;;;;4997038;28;20186;-49
2023/08/11 09:17:39;;;;;;;6.10;1.90;;;;;;;;;;4996811;28;20177;-49
2023/08/11 09:20:08;;;;;;;1.67;1.58;;;;;;;;;;4995607;28;20240;-49
2023/08/11 09:22:37;;;;;;;1.55;1.45;;;;;;;;;;4995981;28;20192;-49
2023/08/11 09:25:03;;;;;;;2.22;1.67;;;;;;;;;;4996748;28;20574;-49
2023/08/11 09:27:30;;;;;;;1.75;1.65;;;;;;;;;;5004408;28;20233;-49
2023/08/11 09:29:57;;;;;;;2.08;1.67;;;;;;;;;;4995528;28;20188;-49
2023/08/11 09:32:23;;;;;;;2.40;1.42;;;;;;;;;;5003631;28;20437;-49
2023/08/11 09:34:49;;;;;;;1.60;1.50;;;;;;;;;;5004770;28;20223;-49
2023/08/11 09:37:15;;;;;;;2.95;1.70;;;;;;;;;;5004306;28;20193;-49
2023/08/11 09:39:42;;;;;;;1.52;1.40;;;;;;;;;;4997222;28;20209;-49
2023/08/11 09:42:14;;;;;;;2.97;1.88;;;;;;;;;;5000592;28;20189;-49
2023/08/11 09:44:40;;;;;;;2.20;1.77;;;;;;;;;;4987999;28;20179;-49
2023/08/11 09:47:11;;;;;;;2.08;1.60;;;;;;;;;;4989079;28;20604;-49
2023/08/11 09:49:37;;;;;;;1.73;1.63;;;;;;;;;;4995127;28;20228;-50
2023/08/11 09:52:04;;;;;;;1.75;1.63;;;;;;;;;;4991586;28;20197;-49
2023/08/11 09:54:30;;;;;;;4.03;1.63;;;;;;;;;;4987981;28;20179;-49
2023/08/11 09:56:57;;;;;;;1.67;1.58;;;;;;;;;;4990826;28;20189;-49
2023/08/11 09:59:24;;;;;;;2.05;1.50;;;;;;;;;;4985317;28;20213;-49
2023/08/11 10:01:52;;;;;;;2.67;1.67;;;;;;;;;;5001412;28;20213;-49
2023/08/11 10:04:34;;;;;;;2.00;1.77;;;;;;;;;;4993233;28;20219;-49
2023/08/11 10:07:02;;;;;;;1.50;1.40;;;;;;;;;;4992071;28;20481;-49
2023/08/11 10:09:29;;;;;;;2.00;1.60;;;;;;;;;;4994451;28;20721;-49
2023/08/11 10:11:57;;;;;;;2.80;1.50;;;;;;;;;;4989840;28;20281;-49
2023/08/11 10:14:24;;;;;;;6.78;1.85;;;;;;;;;;4994750;28;20212;-48
2023/08/11 10:16:50;;;;;;;3.72;1.63;;;;;;;;;;4999350;28;20733;-49
2023/08/11 10:19:17;;;;;;;3.17;1.63;;;;;;;;;;5003949;28;20242;-50
2023/08/11 10:21:43;;;;;;;4.07;1.90;;;;;;;;;;4992416;28;20503;-57
2023/08/11 10:24:10;;;;;;;3.75;1.90;;;;;;;;;;4993427;28;20181;-49
2023/08/11 10:26:36;;;;;;;3.17;2.00;;;;;;;;;;4991175;28;20177;-49
2023/08/11 10:29:02;;;;;;;4.10;1.88;;;;;;;;;;4990805;28;20508;-52
2023/08/11 10:31:31;;;;;;;6.13;2.05;;;;;;;;;;4994455;28;20193;-53
2023/08/11 10:33:58;;;;;;;2.33;1.80;;;;;;;;;;4988698;28;20192;-49
2023/08/11 10:36:25;;;;;;;2.70;1.95;;;;;;;;;;5002355;28;20307;-53
2023/08/11 10:39:04;;;;;;;3.53;1.65;;;;;;;;;;5004069;28;20259;-53
2023/08/11 10:41:30;;;;;;;6.60;1.80;;;;;;;;;;4997359;28;20181;-49
2023/08/11 10:43:56;;;;;;;1.85;1.70;;;;;;;;;;5003116;28;20195;-50
2023/08/11 10:46:24;;;;;;;2.72;1.70;;;;;;;;;;4995589;28;20451;-49
2023/08/11 10:48:54;;;;;;;4.15;1.90;;;;;;;;;;4994218;28;20235;-49
2023/08/11 10:51:30;;;;;;;2.08;1.85;;;;;;;;;;4987108;28;20188;-49
2023/08/11 10:53:57;;;;;;;2.25;1.90;;;;;;;;;;4985144;28;20188;-50
2023/08/11 10:56:30;;;;;;;2.40;1.65;;;;;;;;;;4993165;28;20181;-49
2023/08/11 10:59:06;;;;;;;4.68;1.75;;;;;;;;;;5000330;28;20254;-49
2023/08/11 11:01:36;;;;;;;1.98;1.77;;;;;;;;;;4988217;28;20181;-50
2023/08/11 11:04:02;;;;;;;1.90;1.70;;;;;;;;;;4986389;28;20521;-49
2023/08/11 11:06:28;;;;;;;1.75;1.60;;;;;;;;;;5012717;28;20181;-50
2023/08/11 11:08:54;;;;;;;4.68;1.83;;;;;;;;;;5001854;28;20219;-49
2023/08/11 11:11:20;;;;;;;3.88;2.00;;;;;;;;;;4992553;28;20520;-49
2023/08/11 11:13:46;;;;;;;4.45;1.85;;;;;;;;;;4988291;28;20184;-49
2023/08/11 11:16:12;;;;;;;4.90;1.98;;;;;;;;;;4994992;28;20287;-49
2023/08/11 11:18:39;;;;;;;2.85;1.85;;;;;;;;;;4995281;28;20255;-50
2023/08/11 11:21:05;;;;;;;4.72;1.90;;;;;;;;;;4992754;28;20197;-49
2023/08/11 11:23:34;;;;;;;2.63;2.42;;;;;;;;;;4994719;28;20185;-49
2023/08/11 11:26:01;;;;;;;2.30;1.90;;;;;;;;;;4989200;28;20192;-49
2023/08/11 11:28:27;;;;;;;2.35;2.10;;;;;;;;;;4992764;28;20232;-49
2023/08/11 11:30:54;;;;;;;3.15;1.98;;;;;;;;;;4988101;28;20196;-49
2023/08/11 11:33:20;;;;;;;3.30;2.10;;;;;;;;;;4996612;28;20246;-49
2023/08/11 11:35:46;;;;;;;5.00;2.05;;;;;;;;;;4994719;28;20181;-49
2023/08/11 11:38:11;;;;;;;2.25;1.80;;;;;;;;;;4994963;28;20224;-49
2023/08/11 11:40:37;;;;;;;2.67;1.88;;;;;;;;;;4992609;28;20229;-49
2023/08/11 11:43:03;;;;;;;1.90;1.70;;;;;;;;;;4987302;28;20571;-49
2023/08/11 11:45:29;;;;;;;2.83;1.92;;;;;;;;;;4995201;28;20184;-50
2023/08/11 11:47:56;;;;;;;3.47;1.83;;;;;;;;;;4992698;28;20193;-49
2023/08/11 11:50:22;;;;;;;1.70;1.60;;;;;;;;;;4990007;28;20186;-50
2023/08/11 11:52:48;;;;;;;2.58;2.03;;;;;;;;;;4993353;28;20189;-50
2023/08/11 11:55:16;;;;;;;2.10;1.90;;;;;;;;;;4994796;28;20580;-49
2023/08/11 11:57:42;;;;;;;3.30;2.00;;;;;;;;;;4989125;28;20177;-50
2023/08/11 12:00:16;;;;;;;2.88;1.80;;;;;;;;;;4989662;28;20193;-50
2023/08/11 12:02:42;;;;;;;4.05;2.33;;;;;;;;;;4993828;28;20213;-50
2023/08/11 12:05:08;;;;;;;2.63;1.80;;;;;;;;;;4994692;28;20189;-49
2023/08/11 12:07:36;;;;;;;3.65;1.70;;;;;;;;;;4994260;28;20293;-49
2023/08/11 12:10:04;;;;;;;3.72;1.75;;;;;;;;;;4993106;28;20177;-50
2023/08/11 12:12:30;;;;;;;3.97;1.70;;;;;;;;;;4990894;28;20204;-50
2023/08/11 12:15:04;;;;;;;4.18;1.80;;;;;;;;;;4990575;28;20181;-50
2023/08/11 12:17:31;;;;;;;4.13;1.60;;;;;;;;;;4997299;28;20217;-49
2023/08/11 12:19:57;;;;;;;2.17;1.48;;;;;;;;;;4992952;28;20182;-50
2023/08/11 12:22:23;;;;;;;2.60;1.80;;;;;;;;;;4991347;28;20545;-49
2023/08/11 12:24:49;;;;;;;1.70;1.60;;;;;;;;;;4993349;28;20173;-49
2023/08/11 12:27:15;;;;;;;2.08;1.60;;;;;;;;;;4994497;28;20225;-49
2023/08/11 12:29:41;;;;;;;1.60;1.50;;;;;;;;;;4997278;28;20507;-50
2023/08/11 12:32:06;;;;;;;1.55;1.30;;;;;;;;;;4994841;28;20182;-49
2023/08/11 12:34:32;;;;;;;4.15;1.75;;;;;;;;;;4993907;28;20182;-49
2023/08/11 12:36:58;;;;;;;2.10;1.85;;;;;;;;;;4997590;28;20173;-50
2023/08/11 12:39:24;;;;;;;2.33;1.70;;;;;;;;;;4997309;28;20223;-49
2023/08/11 12:41:50;;;;;;;2.75;1.67;;;;;;;;;;4995031;28;20252;-49
2023/08/11 12:44:16;;;;;;;5.93;1.73;;;;;;;;;;4998252;28;20416;-50
2023/08/11 12:46:42;;;;;;;3.08;1.88;;;;;;;;;;4997038;28;20188;-50
2023/08/11 12:49:08;;;;;;;1.50;1.40;;;;;;;;;;4995206;28;20268;-50
2023/08/11 12:51:35;;;;;;;3.08;1.55;;;;;;;;;;4994349;28;20201;-49
2023/08/11 12:54:01;;;;;;;1.55;1.45;;;;;;;;;;4996721;28;20188;-50
2023/08/11 12:56:26;;;;;;;4.00;1.95;;;;;;;;;;5005836;28;20184;-50
2023/08/11 12:58:52;;;;;;;1.83;1.73;;;;;;;;;;4998504;28;20255;-50
2023/08/11 13:01:18;;;;;;;1.60;1.50;;;;;;;;;;5009205;28;20226;-50
2023/08/11 13:03:44;;;;;;;3.38;1.52;;;;;;;;;;4996475;28;20185;-49
2023/08/11 13:06:10;;;;;;;1.65;1.55;;;;;;;;;;4997120;28;20181;-50
2023/08/11 13:08:36;;;;;;;1.92;1.73;;;;;;;;;;4997093;28;20181;-50
2023/08/11 13:11:02;;;;;;;1.60;1.50;;;;;;;;;;4997207;28;20612;-50
2023/08/11 13:13:28;;;;;;;1.80;1.50;;;;;;;;;;4993097;28;20215;-50
2023/08/11 13:15:54;;;;;;;1.83;1.50;;;;;;;;;;4996707;28;20583;-49
2023/08/11 13:18:20;;;;;;;1.98;1.60;;;;;;;;;;4997069;28;20236;-50
2023/08/11 13:20:46;;;;;;;2.13;1.42;;;;;;;;;;4996751;28;20185;-50
2023/08/11 13:23:12;;;;;;;2.42;1.60;;;;;;;;;;4994970;28;20185;-50
2023/08/11 13:25:38;;;;;;;1.60;1.50;;;;;;;;;;4996440;28;20185;-50
2023/08/11 13:28:04;;;;;;;1.45;1.30;;;;;;;;;;4993466;28;20177;-49
2023/08/11 13:30:31;;;;;;;1.63;1.40;;;;;;;;;;4996213;28;20185;-50
2023/08/11 13:32:59;;;;;;;2.95;1.50;;;;;;;;;;4994483;28;20169;-50
2023/08/11 13:35:24;;;;;;;1.80;1.60;;;;;;;;;;4995013;28;20188;-50
2023/08/11 13:37:50;;;;;;;2.83;1.50;;;;;;;;;;4996292;28;20181;-50
2023/08/11 13:40:17;;;;;;;1.98;1.30;;;;;;;;;;4992067;28;20265;-50
2023/08/11 13:42:43;;;;;;;2.65;1.58;;;;;;;;;;4994782;28;20181;-50
2023/08/11 13:45:10;;;;;;;1.52;1.25;;;;;;;;;;4996397;28;20197;-51
2023/08/11 13:47:36;;;;;;;2.08;1.40;;;;;;;;;;4991698;28;20189;-53
2023/08/11 13:50:02;;;;;;;3.50;1.75;;;;;;;;;;4996432;28;20228;-50
2023/08/11 13:52:28;;;;;;;1.65;1.50;;;;;;;;;;4995174;28;20248;-50
2023/08/11 13:55:00;;;;;;;1.95;1.70;;;;;;;;;;4992166;28;20185;-50
2023/08/11 13:57:27;;;;;;;1.33;1.23;;;;;;;;;;4994219;28;20189;-50
2023/08/11 13:59:57;;;;;;;2.92;1.45;;;;;;;;;;4996088;28;20209;-50
2023/08/11 14:02:23;;;;;;;1.95;1.30;;;;;;;;;;4989867;28;20185;-50
2023/08/11 14:04:49;;;;;;;1.85;1.52;;;;;;;;;;4995248;28;20238;-50
2023/08/11 14:07:15;;;;;;;1.75;1.23;;;;;;;;;;4994862;28;20197;-50
2023/08/11 14:09:41;;;;;;;1.83;1.50;;;;;;;;;;4989080;28;20189;-50
2023/08/11 14:12:07;;;;;;;1.55;1.20;;;;;;;;;;4991190;28;20279;-50
2023/08/11 14:14:33;;;;;;;1.45;1.27;;;;;;;;;;4995742;28;20606;-50
2023/08/11 14:16:59;;;;;;;3.10;1.17;;;;;;;;;;4995309;28;20185;-51
2023/08/11 14:19:25;;;;;;;1.80;1.48;;;;;;;;;;4995984;28;20346;-50
2023/08/11 14:21:51;;;;;;;2.45;1.67;;;;;;;;;;4988318;28;20264;-50
2023/08/11 14:24:17;;;;;;;1.60;1.30;;;;;;;;;;4996820;28;20464;-50
2023/08/11 14:26:43;;;;;;;1.65;1.15;;;;;;;;;;4996159;28;20659;-50
2023/08/11 14:29:08;;;;;;;1.42;1.33;;;;;;;;;;4982734;28;20227;-50
2023/08/11 14:31:34;;;;;;;2.22;1.20;;;;;;;;;;4985466;28;20181;-51
2023/08/11 14:34:02;;;;;;;2.85;1.40;;;;;;;;;;4985220;28;20185;-51
2023/08/11 14:36:28;;;;;;;2.58;1.30;;;;;;;;;;4989244;28;20305;-51